createdAt,value
2019-05-21T00:04:28.185Z,80.42
2019-05-21T00:09:40.396Z,80.71
2019-05-21T00:14:58.991Z,80.81
2019-05-21T00:20:17.786Z,80.92
2019-05-21T00:25:36.411Z,81.05
2019-05-21T00:31:31.336Z,81.18
2019-05-21T00:37:26.205Z,81.36
2019-05-21T00:42:46.731Z,81.43
2019-05-21T00:48:05.937Z,81.39
2019-05-21T00:53:24.698Z,81.35
2019-05-21T00:58:43.427Z,81.40
2019-05-21T01:04:02.096Z,81.43
2019-05-21T01:09:20.746Z,81.44
2019-05-21T01:14:39.393Z,81.47
2019-05-21T01:19:58.055Z,81.46
2019-05-21T01:25:16.738Z,81.51
2019-05-21T01:30:36.193Z,81.58
2019-05-21T01:35:54.924Z,81.63
2019-05-21T01:41:13.534Z,81.67
2019-05-21T01:46:32.120Z,81.71
2019-05-21T01:51:51.276Z,81.79
2019-05-21T02:03:31.937Z,81.88
2019-05-21T02:08:50.588Z,81.94
2019-05-21T02:14:09.164Z,82.03
2019-05-21T02:19:27.868Z,82.13
2019-05-21T02:24:46.488Z,82.24
2019-05-21T02:30:09.283Z,82.36
2019-05-21T02:35:27.781Z,82.50
2019-05-21T02:40:46.448Z,82.64
2019-05-21T02:46:05.098Z,82.75
2019-05-21T02:51:23.800Z,82.83
2019-05-21T02:56:42.413Z,82.92
2019-05-21T03:02:05.508Z,82.98
2019-05-21T03:07:25.680Z,83.07
2019-05-21T03:12:44.491Z,83.19
2019-05-21T03:18:03.158Z,83.26
2019-05-21T03:23:21.850Z,83.31
2019-05-21T03:28:40.562Z,83.37
2019-05-21T03:33:59.201Z,83.44
2019-05-21T03:39:19.467Z,83.48
2019-05-21T03:44:38.201Z,83.56
2019-05-21T03:49:56.852Z,83.62
2019-05-21T03:55:15.592Z,83.70
2019-05-21T04:00:34.296Z,83.77
2019-05-21T04:05:53.154Z,83.83
2019-05-21T04:11:12.095Z,83.86
2019-05-21T04:16:32.307Z,83.87
2019-05-21T04:21:51.003Z,83.88
2019-05-21T04:27:09.623Z,83.89
2019-05-21T04:32:28.308Z,83.89
2019-05-21T04:37:46.949Z,83.90
2019-05-21T04:43:05.603Z,83.89
2019-05-21T04:48:24.278Z,83.89
2019-05-21T04:53:42.972Z,83.88
2019-05-21T04:59:01.523Z,83.87
2019-05-21T05:04:21.658Z,83.87
2019-05-21T05:09:40.520Z,83.87
2019-05-21T05:14:59.150Z,83.86
2019-05-21T05:20:18.137Z,83.78
2019-05-21T05:25:42.625Z,83.64
2019-05-21T05:31:01.381Z,83.48
2019-05-21T05:36:21.450Z,83.27
2019-05-21T05:41:40.025Z,83.10
2019-05-21T05:46:58.796Z,82.94
2019-05-21T05:52:17.616Z,82.68
2019-05-21T05:57:36.239Z,82.57
2019-05-21T06:02:54.943Z,82.40
2019-05-21T06:08:13.599Z,82.40
2019-05-21T06:13:32.228Z,82.38
2019-05-21T06:18:50.937Z,82.29
2019-05-21T06:24:13.181Z,82.12
2019-05-21T06:29:30.516Z,82.13
2019-05-21T06:34:49.170Z,82.07
2019-05-21T06:40:07.919Z,81.86
2019-05-21T06:45:26.779Z,81.76
2019-05-21T06:50:45.590Z,81.82
2019-05-21T06:56:07.370Z,81.64
2019-05-21T07:01:28.817Z,81.46
2019-05-21T07:06:45.344Z,81.11
2019-05-21T07:12:04.649Z,81.33
2019-05-21T07:17:23.164Z,81.19
2019-05-21T07:22:41.829Z,81.12
2019-05-21T07:28:00.483Z,80.98
2019-05-21T07:33:19.168Z,81.01
2019-05-21T07:38:51.808Z,80.58
2019-05-21T07:43:58.091Z,80.66
2019-05-21T07:49:16.766Z,81.02
2019-05-21T07:54:35.400Z,81.62
2019-05-21T07:59:53.980Z,81.62
2019-05-21T08:05:12.956Z,81.70
2019-05-21T08:10:31.601Z,81.87
2019-05-21T08:15:50.239Z,82.42
2019-05-21T08:21:08.984Z,82.75
2019-05-21T08:26:27.902Z,82.52
2019-05-21T08:31:46.551Z,82.38
2019-05-21T08:37:05.211Z,82.09
2019-05-21T08:42:23.923Z,81.75
2019-05-21T08:47:42.573Z,81.59
2019-05-21T08:53:01.209Z,81.66
2019-05-21T08:58:19.863Z,81.39
2019-05-21T09:03:38.543Z,81.53
2019-05-21T09:08:57.395Z,81.43
2019-05-21T09:14:16.349Z,81.14
2019-05-21T09:19:36.612Z,80.79
2019-05-21T09:24:55.508Z,80.67
2019-05-21T09:30:14.938Z,80.79
2019-05-21T09:35:33.564Z,80.05
2019-05-21T09:40:52.526Z,80.18
2019-05-21T09:46:11.154Z,79.94
2019-05-21T09:51:29.795Z,80.89
2019-05-21T09:56:48.412Z,80.89
2019-05-21T10:02:08.744Z,80.54
2019-05-21T10:07:39.098Z,80.41
2019-05-21T10:12:47.859Z,80.48
2019-05-21T10:18:06.555Z,80.34
2019-05-21T10:23:25.177Z,80.18
2019-05-21T10:28:43.869Z,80.26
2019-05-21T10:34:02.811Z,80.68
2019-05-21T10:39:21.796Z,80.93
2019-05-21T10:44:40.531Z,81.12
2019-05-21T10:49:59.156Z,81.34
2019-05-21T10:55:17.883Z,81.24
2019-05-21T11:00:36.651Z,81.20
2019-05-21T11:06:09.780Z,81.27
2019-05-21T11:11:21.271Z,81.40
2019-05-21T11:16:39.169Z,81.20
2019-05-21T11:21:57.824Z,80.96
2019-05-21T11:27:16.558Z,80.99
2019-05-21T11:32:35.286Z,80.92
2019-05-21T11:37:53.959Z,80.88
2019-05-21T11:43:12.600Z,81.31
2019-05-21T11:48:31.251Z,81.03
2019-05-21T11:53:49.938Z,80.99
2019-05-21T11:59:08.606Z,81.07
2019-05-21T12:04:27.370Z,81.25
2019-05-21T12:09:46.033Z,81.14
2019-05-21T12:15:09.567Z,81.16
2019-05-21T12:20:36.633Z,80.76
2019-05-21T12:25:51.221Z,80.76
2019-05-21T12:31:09.890Z,81.05
2019-05-21T12:36:28.671Z,81.05
2019-05-21T12:41:47.319Z,80.90
2019-05-21T12:47:09.621Z,80.73
2019-05-21T12:52:26.393Z,80.75
2019-05-21T12:57:46.292Z,80.93
2019-05-21T13:03:05.031Z,80.99
2019-05-21T13:08:28.792Z,80.92
2019-05-21T13:13:47.517Z,80.72
2019-05-21T13:19:10.473Z,80.86
2019-05-21T13:24:26.453Z,80.96
2019-05-21T13:29:45.179Z,80.79
2019-05-21T13:35:05.811Z,80.51
2019-05-21T13:40:24.823Z,80.47
2019-05-21T13:45:43.563Z,80.62
2019-05-21T13:51:02.662Z,80.61
2019-05-21T13:56:21.368Z,80.75
2019-05-21T14:01:41.665Z,80.68
2019-05-21T14:07:00.485Z,80.60
2019-05-21T14:12:19.312Z,80.50
2019-05-21T14:17:37.991Z,80.67
2019-05-21T14:22:56.654Z,80.70
2019-05-21T14:28:15.293Z,80.55
2019-05-21T14:33:35.389Z,80.45
2019-05-21T14:38:53.877Z,80.35
2019-05-21T14:44:12.813Z,80.63
2019-05-21T14:49:31.475Z,80.63
2019-05-21T14:54:50.204Z,80.56
2019-05-21T15:00:11.088Z,80.63
2019-05-21T15:05:29.735Z,80.55
2019-05-21T15:10:49.696Z,80.66
2019-05-21T15:16:29.723Z,80.49
2019-05-21T15:21:56.060Z,80.77
2019-05-21T15:27:14.713Z,80.69
2019-05-21T15:32:33.301Z,80.61
2019-05-21T15:37:52.008Z,80.65
2019-05-21T15:43:10.792Z,80.60
2019-05-21T15:48:29.469Z,80.48
2019-05-21T15:53:48.114Z,80.33
2019-05-21T15:59:20.209Z,79.90
2019-05-21T16:04:38.479Z,79.81
2019-05-21T16:09:57.190Z,80.23
2019-05-21T16:15:15.863Z,79.87
2019-05-21T16:20:34.511Z,79.93
2019-05-21T16:25:57.811Z,79.86
2019-05-21T16:31:16.539Z,80.14
2019-05-21T16:36:35.306Z,80.21
2019-05-21T16:41:53.914Z,80.25
2019-05-21T16:47:12.609Z,80.25
2019-05-21T16:52:31.620Z,80.36
2019-05-21T16:57:50.335Z,80.55
2019-05-21T17:03:09.227Z,80.64
2019-05-21T17:08:28.283Z,80.83
2019-05-21T17:13:47.008Z,80.78
2019-05-21T17:19:05.616Z,80.81
2019-05-21T17:24:24.273Z,80.91
2019-05-21T17:29:42.972Z,81.03
2019-05-21T17:35:01.775Z,80.73
2019-05-21T17:40:20.777Z,80.76
2019-05-21T17:45:41.479Z,80.44
2019-05-21T17:51:01.963Z,80.47
2019-05-21T17:56:20.912Z,80.29
2019-05-21T18:01:39.631Z,80.34
2019-05-21T18:06:58.476Z,80.29
2019-05-21T18:12:31.195Z,80.64
2019-05-21T18:17:37.791Z,80.54
2019-05-21T18:22:56.539Z,80.71
2019-05-21T18:28:15.322Z,80.53
2019-05-21T18:33:34.333Z,80.49
2019-05-21T18:38:53.505Z,80.59
2019-05-21T18:44:12.141Z,80.36
2019-05-21T18:49:30.931Z,80.27
2019-05-21T18:54:49.858Z,80.26
2019-05-21T19:00:11.733Z,80.23
2019-05-21T19:05:37.069Z,80.24
2019-05-21T19:10:55.691Z,80.29
2019-05-21T19:16:14.371Z,80.51
2019-05-21T19:21:33.328Z,80.55
2019-05-21T19:26:51.989Z,80.57
2019-05-21T19:32:11.077Z,80.46
2019-05-21T19:37:30.081Z,80.64
2019-05-21T19:42:54.876Z,80.83
2019-05-21T19:48:09.762Z,80.72
2019-05-21T19:53:28.706Z,80.60
2019-05-21T19:58:47.451Z,80.41
2019-05-21T20:04:06.951Z,80.60
2019-05-21T20:09:27.256Z,80.56
2019-05-21T20:14:46.793Z,80.76
2019-05-21T20:20:07.595Z,80.77
2019-05-21T20:25:26.792Z,80.90
2019-05-21T20:30:46.206Z,81.09
2019-05-21T20:36:06.632Z,81.09
2019-05-21T20:41:25.387Z,81.07
2019-05-21T20:46:44.149Z,81.25
2019-05-21T20:52:17.704Z,81.29
2019-05-21T20:57:25.089Z,81.33
2019-05-21T21:02:44.615Z,81.55
2019-05-21T21:08:03.371Z,81.59
2019-05-21T21:13:21.983Z,81.68
2019-05-21T21:18:40.630Z,81.81
2019-05-21T21:23:59.583Z,82.01
2019-05-21T21:29:18.280Z,82.07
2019-05-21T21:34:37.127Z,82.12
2019-05-21T21:39:56.064Z,82.14
2019-05-21T21:45:14.803Z,82.20
2019-05-21T21:50:35.446Z,82.32
2019-05-21T21:55:54.058Z,82.30
2019-05-21T22:01:20.224Z,82.42
2019-05-21T22:06:41.631Z,82.45
2019-05-21T22:12:02.215Z,82.43
2019-05-21T22:17:21.269Z,82.44
2019-05-21T22:22:40.084Z,82.41
2019-05-21T22:27:58.710Z,82.50
2019-05-21T22:33:18.039Z,82.55
2019-05-21T22:38:36.657Z,82.68
2019-05-21T22:43:55.378Z,82.68
2019-05-21T22:49:14.197Z,82.75
2019-05-21T22:54:32.874Z,82.77
2019-05-21T22:59:51.752Z,82.90
2019-05-21T23:05:11.155Z,83.00
2019-05-21T23:10:29.946Z,82.99
2019-05-21T23:15:49.940Z,83.06
2019-05-21T23:21:11.170Z,82.98
2019-05-21T23:26:30.632Z,83.00
2019-05-21T23:31:49.243Z,83.01
2019-05-21T23:37:09.647Z,82.99
2019-05-21T23:42:30.086Z,83.01
2019-05-21T23:47:49.282Z,83.08
2019-05-21T23:53:08.385Z,83.12
2019-05-21T23:58:27.035Z,83.16
